createdAt,value
2018-08-20T00:01:27.725Z,46
2018-08-20T00:11:30.383Z,42
2018-08-20T00:21:33.986Z,42
2018-08-20T00:31:27.274Z,46
2018-08-20T00:41:27.486Z,46
2018-08-20T00:51:27.650Z,44
2018-08-20T01:01:29.364Z,42
2018-08-20T01:11:27.250Z,42
2018-08-20T01:21:27.489Z,46
2018-08-20T01:31:29.170Z,42
2018-08-20T01:41:28.999Z,42
2018-08-20T01:51:27.011Z,42
2018-08-20T02:01:28.429Z,43
2018-08-20T02:11:28.971Z,43
2018-08-20T02:21:27.976Z,45
2018-08-20T02:31:27.477Z,45
2018-08-20T02:41:29.090Z,42
2018-08-20T02:51:28.184Z,44
2018-08-20T03:01:27.247Z,45
2018-08-20T03:11:27.807Z,45
2018-08-20T03:21:28.741Z,43
2018-08-20T03:31:28.916Z,47
2018-08-20T03:41:26.820Z,45
2018-08-20T03:51:27.743Z,48
2018-08-20T04:01:29.697Z,45
2018-08-20T04:11:27.747Z,45
2018-08-20T04:21:27.081Z,47
2018-08-20T04:31:27.352Z,46
2018-08-20T04:41:27.402Z,48
2018-08-20T04:51:31.176Z,48
2018-08-20T05:01:27.305Z,48
2018-08-20T05:11:27.823Z,47
2018-08-20T05:21:26.962Z,46
2018-08-20T05:31:27.841Z,45
2018-08-20T05:41:28.051Z,47
2018-08-20T05:51:28.534Z,44
2018-08-20T06:01:28.238Z,45
2018-08-20T06:11:27.769Z,46
2018-08-20T06:21:27.549Z,46
2018-08-20T06:31:27.539Z,46
2018-08-20T06:41:27.892Z,48
2018-08-20T06:51:27.345Z,46
2018-08-20T07:01:28.882Z,43
2018-08-20T07:11:29.629Z,42
2018-08-20T07:21:27.753Z,43
2018-08-20T07:31:27.671Z,45
2018-08-20T07:41:28.269Z,45
2018-08-20T07:51:28.294Z,43
2018-08-20T08:01:27.308Z,43
2018-08-20T08:11:28.269Z,44
2018-08-20T08:21:28.689Z,43
2018-08-20T08:31:28.713Z,42
2018-08-20T08:41:27.854Z,42
2018-08-20T08:51:27.779Z,45
2018-08-20T09:01:27.769Z,45
2018-08-20T09:11:27.999Z,44
2018-08-20T09:21:27.807Z,42
2018-08-20T09:31:28.352Z,42
2018-08-20T09:41:27.390Z,42
2018-08-20T09:51:29.351Z,40
2018-08-20T10:01:27.720Z,43
2018-08-20T10:11:28.013Z,43
2018-08-20T10:21:28.087Z,40
2018-08-20T10:31:27.692Z,40
2018-08-20T10:41:30.294Z,38
2018-08-20T10:51:27.977Z,41
2018-08-20T11:01:27.316Z,41
2018-08-20T11:11:28.257Z,38
2018-08-20T11:21:27.556Z,37
2018-08-20T11:31:27.904Z,39
2018-08-20T11:41:30.252Z,35
2018-08-20T11:51:29.300Z,36
2018-08-20T12:01:28.377Z,35
2018-08-20T12:11:28.894Z,36
2018-08-20T12:21:27.704Z,36
2018-08-20T12:31:28.240Z,36
2018-08-20T12:41:27.985Z,36
2018-08-20T12:51:27.434Z,38
2018-08-20T13:01:28.966Z,35
2018-08-20T13:11:27.258Z,37
2018-08-20T13:21:28.125Z,35
2018-08-20T13:31:27.212Z,35
2018-08-20T13:41:32.950Z,36
2018-08-20T13:51:26.913Z,35
2018-08-20T14:01:28.171Z,34
2018-08-20T14:11:28.705Z,34
2018-08-20T14:21:27.967Z,34
2018-08-20T14:31:27.227Z,36
2018-08-20T14:41:27.533Z,36
2018-08-20T14:51:28.241Z,34
2018-08-20T15:01:27.665Z,36
2018-08-20T15:11:27.982Z,35
2018-08-20T15:21:27.901Z,35
2018-08-20T15:31:26.903Z,34
2018-08-20T15:41:27.956Z,35
2018-08-20T15:51:31.375Z,33
2018-08-20T16:01:27.955Z,35
2018-08-20T16:11:28.415Z,34
2018-08-20T16:21:27.864Z,35
2018-08-20T16:31:28.122Z,35
2018-08-20T16:41:29.148Z,33
2018-08-20T16:51:27.220Z,33
2018-08-20T17:01:28.100Z,34
2018-08-20T17:11:49.666Z,33
2018-08-20T17:21:28.965Z,34
2018-08-20T17:31:27.009Z,33
2018-08-20T17:41:28.354Z,34
2018-08-20T17:51:27.727Z,36
2018-08-20T18:01:30.523Z,36
2018-08-20T18:11:46.989Z,34
2018-08-20T18:21:27.235Z,35
2018-08-20T18:31:27.742Z,35
2018-08-20T18:41:48.436Z,36
2018-08-20T18:51:27.602Z,35
2018-08-20T19:01:27.604Z,36
2018-08-20T19:11:27.924Z,36
2018-08-20T19:21:28.397Z,35
2018-08-20T19:31:28.252Z,36
2018-08-20T20:12:19.747Z,35
2018-08-20T20:32:44.378Z,36
2018-08-20T21:31:58.772Z,37
2018-08-20T21:51:27.893Z,38
2018-08-20T23:11:28.978Z,37
2018-08-20T23:32:10.292Z,39
